sensor_id;sensor_type;location;lat;lon;timestamp;temperature;humidity
45685;DHT22;46836;48.388;16.210;2023-07-13T00:01:55;22.30;99.90
45685;DHT22;46836;48.388;16.210;2023-07-13T00:04:24;22.30;99.90
45685;DHT22;46836;48.388;16.210;2023-07-13T00:06:53;22.30;99.90
45685;DHT22;46836;48.388;16.210;2023-07-13T00:09:21;22.40;99.90
45685;DHT22;46836;48.388;16.210;2023-07-13T00:11:55;22.40;99.90
45685;DHT22;46836;48.388;16.210;2023-07-13T00:14:23;22.40;99.90
45685;DHT22;46836;48.388;16.210;2023-07-13T00:16:50;22.30;99.90
45685;DHT22;46836;48.388;16.210;2023-07-13T00:19:17;22.30;99.90
45685;DHT22;46836;48.388;16.210;2023-07-13T00:21:46;22.30;99.90
45685;DHT22;46836;48.388;16.210;2023-07-13T00:24:15;22.20;99.90
45685;DHT22;46836;48.388;16.210;2023-07-13T00:26:43;22.20;99.90
45685;DHT22;46836;48.388;16.210;2023-07-13T00:29:13;22.10;99.90
45685;DHT22;46836;48.388;16.210;2023-07-13T00:31:40;22.00;99.90
45685;DHT22;46836;48.388;16.210;2023-07-13T00:34:08;22.00;99.90
45685;DHT22;46836;48.388;16.210;2023-07-13T00:36:35;22.00;99.90
45685;DHT22;46836;48.388;16.210;2023-07-13T00:39:02;22.00;99.90
45685;DHT22;46836;48.388;16.210;2023-07-13T00:41:31;22.00;99.90
45685;DHT22;46836;48.388;16.210;2023-07-13T00:43:58;22.00;99.90
45685;DHT22;46836;48.388;16.210;2023-07-13T00:46:31;22.00;99.90
45685;DHT22;46836;48.388;16.210;2023-07-13T00:49:05;22.20;99.90
45685;DHT22;46836;48.388;16.210;2023-07-13T00:51:47;22.20;99.90
45685;DHT22;46836;48.388;16.210;2023-07-13T00:54:19;22.30;99.90
45685;DHT22;46836;48.388;16.210;2023-07-13T00:56:49;22.30;99.90
45685;DHT22;46836;48.388;16.210;2023-07-13T00:59:18;22.40;99.90
45685;DHT22;46836;48.388;16.210;2023-07-13T01:01:47;22.30;99.90
45685;DHT22;46836;48.388;16.210;2023-07-13T01:04:14;22.30;99.90
45685;DHT22;46836;48.388;16.210;2023-07-13T01:06:42;22.30;99.90
45685;DHT22;46836;48.388;16.210;2023-07-13T01:09:11;22.20;99.90
45685;DHT22;46836;48.388;16.210;2023-07-13T01:11:40;22.20;99.90
45685;DHT22;46836;48.388;16.210;2023-07-13T01:14:08;22.10;99.90
45685;DHT22;46836;48.388;16.210;2023-07-13T01:16:37;22.00;99.90
45685;DHT22;46836;48.388;16.210;2023-07-13T01:22:09;21.90;99.90
45685;DHT22;46836;48.388;16.210;2023-07-13T01:24:37;21.80;99.90
45685;DHT22;46836;48.388;16.210;2023-07-13T01:27:06;21.70;99.90
45685;DHT22;46836;48.388;16.210;2023-07-13T01:29:34;21.60;99.90
45685;DHT22;46836;48.388;16.210;2023-07-13T01:32:13;21.60;99.90
45685;DHT22;46836;48.388;16.210;2023-07-13T01:34:40;21.60;99.90
45685;DHT22;46836;48.388;16.210;2023-07-13T01:37:12;21.50;99.90
45685;DHT22;46836;48.388;16.210;2023-07-13T01:39:39;21.60;99.90
45685;DHT22;46836;48.388;16.210;2023-07-13T01:42:07;21.60;99.90
45685;DHT22;46836;48.388;16.210;2023-07-13T01:44:34;21.50;99.90
45685;DHT22;46836;48.388;16.210;2023-07-13T01:47:01;21.50;99.90
45685;DHT22;46836;48.388;16.210;2023-07-13T01:49:28;21.50;99.90
45685;DHT22;46836;48.388;16.210;2023-07-13T01:51:55;21.60;99.90
45685;DHT22;46836;48.388;16.210;2023-07-13T01:54:22;21.60;99.90
45685;DHT22;46836;48.388;16.210;2023-07-13T01:56:50;21.60;99.90
45685;DHT22;46836;48.388;16.210;2023-07-13T01:59:17;21.70;99.90
45685;DHT22;46836;48.388;16.210;2023-07-13T02:01:44;21.70;99.90
45685;DHT22;46836;48.388;16.210;2023-07-13T02:04:11;21.70;99.90
45685;DHT22;46836;48.388;16.210;2023-07-13T02:06:38;21.70;99.90
45685;DHT22;46836;48.388;16.210;2023-07-13T02:09:05;21.80;99.90
45685;DHT22;46836;48.388;16.210;2023-07-13T02:11:33;21.80;99.90
45685;DHT22;46836;48.388;16.210;2023-07-13T02:14:01;21.80;99.90
45685;DHT22;46836;48.388;16.210;2023-07-13T02:16:31;21.90;99.90
45685;DHT22;46836;48.388;16.210;2023-07-13T02:18:58;22.00;99.90
45685;DHT22;46836;48.388;16.210;2023-07-13T02:21:25;22.10;99.90
45685;DHT22;46836;48.388;16.210;2023-07-13T02:23:52;22.20;99.90
45685;DHT22;46836;48.388;16.210;2023-07-13T02:26:19;22.30;99.90
45685;DHT22;46836;48.388;16.210;2023-07-13T02:28:46;22.30;99.90
45685;DHT22;46836;48.388;16.210;2023-07-13T02:31:16;22.30;99.90
45685;DHT22;46836;48.388;16.210;2023-07-13T02:33:43;22.30;99.90
45685;DHT22;46836;48.388;16.210;2023-07-13T02:36:12;22.40;99.90
45685;DHT22;46836;48.388;16.210;2023-07-13T02:38:40;22.40;99.90
45685;DHT22;46836;48.388;16.210;2023-07-13T02:41:07;22.40;99.90
45685;DHT22;46836;48.388;16.210;2023-07-13T02:43:37;22.40;99.90
45685;DHT22;46836;48.388;16.210;2023-07-13T02:46:04;22.40;99.90
45685;DHT22;46836;48.388;16.210;2023-07-13T02:48:36;22.40;99.90
45685;DHT22;46836;48.388;16.210;2023-07-13T02:51:04;22.40;99.90
45685;DHT22;46836;48.388;16.210;2023-07-13T02:53:32;22.50;99.90
45685;DHT22;46836;48.388;16.210;2023-07-13T02:55:59;22.60;99.90
45685;DHT22;46836;48.388;16.210;2023-07-13T02:58:26;22.60;99.90
45685;DHT22;46836;48.388;16.210;2023-07-13T03:00:53;22.60;99.90
45685;DHT22;46836;48.388;16.210;2023-07-13T03:03:20;22.70;99.90
45685;DHT22;46836;48.388;16.210;2023-07-13T03:05:47;22.70;99.90
45685;DHT22;46836;48.388;16.210;2023-07-13T03:08:17;22.80;99.90
45685;DHT22;46836;48.388;16.210;2023-07-13T03:10:45;22.90;99.90
45685;DHT22;46836;48.388;16.210;2023-07-13T03:13:12;22.90;99.90
45685;DHT22;46836;48.388;16.210;2023-07-13T03:15:39;22.80;99.90
45685;DHT22;46836;48.388;16.210;2023-07-13T03:18:06;22.80;99.90
45685;DHT22;46836;48.388;16.210;2023-07-13T03:20:34;22.80;99.90
45685;DHT22;46836;48.388;16.210;2023-07-13T03:23:01;22.70;99.90
45685;DHT22;46836;48.388;16.210;2023-07-13T03:25:30;22.80;99.90
45685;DHT22;46836;48.388;16.210;2023-07-13T03:27:57;22.80;99.90
45685;DHT22;46836;48.388;16.210;2023-07-13T03:30:24;22.80;99.90
45685;DHT22;46836;48.388;16.210;2023-07-13T03:32:51;22.70;99.90
45685;DHT22;46836;48.388;16.210;2023-07-13T03:35:18;22.70;99.90
45685;DHT22;46836;48.388;16.210;2023-07-13T03:37:45;22.60;99.90
45685;DHT22;46836;48.388;16.210;2023-07-13T03:40:12;22.50;99.90
45685;DHT22;46836;48.388;16.210;2023-07-13T03:42:39;22.50;99.90
45685;DHT22;46836;48.388;16.210;2023-07-13T03:45:07;22.50;99.90
45685;DHT22;46836;48.388;16.210;2023-07-13T03:47:34;22.50;99.90
45685;DHT22;46836;48.388;16.210;2023-07-13T03:50:01;22.50;99.90
45685;DHT22;46836;48.388;16.210;2023-07-13T03:52:29;22.40;99.90
45685;DHT22;46836;48.388;16.210;2023-07-13T03:54:56;22.30;99.90
45685;DHT22;46836;48.388;16.210;2023-07-13T03:57:23;22.20;99.90
45685;DHT22;46836;48.388;16.210;2023-07-13T03:59:50;22.20;99.90
45685;DHT22;46836;48.388;16.210;2023-07-13T04:02:18;22.10;99.90
45685;DHT22;46836;48.388;16.210;2023-07-13T04:04:45;22.10;99.90
45685;DHT22;46836;48.388;16.210;2023-07-13T04:07:12;22.10;99.90
45685;DHT22;46836;48.388;16.210;2023-07-13T04:09:39;22.00;99.90
45685;DHT22;46836;48.388;16.210;2023-07-13T04:12:07;22.00;99.90
45685;DHT22;46836;48.388;16.210;2023-07-13T04:14:34;22.00;99.90
45685;DHT22;46836;48.388;16.210;2023-07-13T04:17:01;22.00;99.90
45685;DHT22;46836;48.388;16.210;2023-07-13T04:19:29;21.90;99.90
45685;DHT22;46836;48.388;16.210;2023-07-13T04:21:56;21.80;99.90
45685;DHT22;46836;48.388;16.210;2023-07-13T04:24:23;21.80;99.90
45685;DHT22;46836;48.388;16.210;2023-07-13T04:26:50;21.70;99.90
45685;DHT22;46836;48.388;16.210;2023-07-13T04:29:17;21.60;99.90
45685;DHT22;46836;48.388;16.210;2023-07-13T04:31:44;21.60;99.90
45685;DHT22;46836;48.388;16.210;2023-07-13T04:34:11;21.60;99.90
45685;DHT22;46836;48.388;16.210;2023-07-13T04:36:38;21.60;99.90
45685;DHT22;46836;48.388;16.210;2023-07-13T04:39:05;21.60;99.90
45685;DHT22;46836;48.388;16.210;2023-07-13T04:41:33;21.60;99.90
45685;DHT22;46836;48.388;16.210;2023-07-13T04:44:00;21.50;99.90
45685;DHT22;46836;48.388;16.210;2023-07-13T04:46:29;21.50;99.90
45685;DHT22;46836;48.388;16.210;2023-07-13T04:48:56;21.60;99.90
45685;DHT22;46836;48.388;16.210;2023-07-13T04:51:25;21.60;99.90
45685;DHT22;46836;48.388;16.210;2023-07-13T04:53:52;21.50;99.90
45685;DHT22;46836;48.388;16.210;2023-07-13T04:56:26;21.50;99.90
45685;DHT22;46836;48.388;16.210;2023-07-13T04:58:53;21.50;99.90
45685;DHT22;46836;48.388;16.210;2023-07-13T05:01:20;21.40;99.90
45685;DHT22;46836;48.388;16.210;2023-07-13T05:03:48;21.40;99.90
45685;DHT22;46836;48.388;16.210;2023-07-13T05:06:15;21.50;99.90
45685;DHT22;46836;48.388;16.210;2023-07-13T05:08:42;21.50;99.90
45685;DHT22;46836;48.388;16.210;2023-07-13T05:11:10;21.50;99.90
45685;DHT22;46836;48.388;16.210;2023-07-13T05:13:37;21.60;99.90
45685;DHT22;46836;48.388;16.210;2023-07-13T05:16:05;21.60;99.90
45685;DHT22;46836;48.388;16.210;2023-07-13T05:18:35;21.60;99.90
45685;DHT22;46836;48.388;16.210;2023-07-13T05:21:08;21.60;99.90
45685;DHT22;46836;48.388;16.210;2023-07-13T05:23:37;21.70;99.90
45685;DHT22;46836;48.388;16.210;2023-07-13T05:26:04;21.80;99.90
45685;DHT22;46836;48.388;16.210;2023-07-13T05:28:35;21.90;99.90
45685;DHT22;46836;48.388;16.210;2023-07-13T05:31:04;21.90;99.90
45685;DHT22;46836;48.388;16.210;2023-07-13T05:33:32;21.90;99.90
45685;DHT22;46836;48.388;16.210;2023-07-13T05:35:59;22.00;99.90
45685;DHT22;46836;48.388;16.210;2023-07-13T05:38:28;22.00;99.90
45685;DHT22;46836;48.388;16.210;2023-07-13T05:40:56;22.00;99.90
45685;DHT22;46836;48.388;16.210;2023-07-13T05:43:23;22.10;99.90
45685;DHT22;46836;48.388;16.210;2023-07-13T05:45:55;22.20;99.90
45685;DHT22;46836;48.388;16.210;2023-07-13T05:48:23;22.20;99.90
45685;DHT22;46836;48.388;16.210;2023-07-13T05:50:51;22.30;99.90
45685;DHT22;46836;48.388;16.210;2023-07-13T05:53:18;22.30;99.90
45685;DHT22;46836;48.388;16.210;2023-07-13T05:55:47;22.20;99.90
45685;DHT22;46836;48.388;16.210;2023-07-13T05:58:14;22.20;99.90
45685;DHT22;46836;48.388;16.210;2023-07-13T06:00:41;22.20;99.90
45685;DHT22;46836;48.388;16.210;2023-07-13T06:03:08;22.10;99.90
45685;DHT22;46836;48.388;16.210;2023-07-13T06:05:37;22.00;99.90
45685;DHT22;46836;48.388;16.210;2023-07-13T06:08:06;22.00;99.90
45685;DHT22;46836;48.388;16.210;2023-07-13T06:10:34;22.00;99.90
45685;DHT22;46836;48.388;16.210;2023-07-13T06:13:02;22.10;99.90
45685;DHT22;46836;48.388;16.210;2023-07-13T06:15:30;21.90;99.90
45685;DHT22;46836;48.388;16.210;2023-07-13T06:17:57;22.00;99.90
45685;DHT22;46836;48.388;16.210;2023-07-13T06:20:24;22.00;99.90
45685;DHT22;46836;48.388;16.210;2023-07-13T06:22:51;22.00;99.90
45685;DHT22;46836;48.388;16.210;2023-07-13T06:25:18;21.90;99.90
45685;DHT22;46836;48.388;16.210;2023-07-13T06:27:45;21.90;99.90
45685;DHT22;46836;48.388;16.210;2023-07-13T06:30:13;22.00;99.90
45685;DHT22;46836;48.388;16.210;2023-07-13T06:32:40;22.00;99.90
45685;DHT22;46836;48.388;16.210;2023-07-13T06:35:07;22.10;99.90
45685;DHT22;46836;48.388;16.210;2023-07-13T06:37:35;22.20;99.90
45685;DHT22;46836;48.388;16.210;2023-07-13T06:40:02;22.20;99.90
45685;DHT22;46836;48.388;16.210;2023-07-13T06:42:30;22.30;99.90
45685;DHT22;46836;48.388;16.210;2023-07-13T06:44:57;22.30;99.90
45685;DHT22;46836;48.388;16.210;2023-07-13T06:47:24;22.30;99.90
45685;DHT22;46836;48.388;16.210;2023-07-13T06:49:51;22.40;99.90
45685;DHT22;46836;48.388;16.210;2023-07-13T06:52:18;22.60;99.90
45685;DHT22;46836;48.388;16.210;2023-07-13T06:54:45;22.50;99.90
45685;DHT22;46836;48.388;16.210;2023-07-13T06:57:12;22.60;99.90
45685;DHT22;46836;48.388;16.210;2023-07-13T06:59:39;22.60;99.90
45685;DHT22;46836;48.388;16.210;2023-07-13T07:02:09;22.60;99.90
45685;DHT22;46836;48.388;16.210;2023-07-13T07:04:36;22.80;99.90
45685;DHT22;46836;48.388;16.210;2023-07-13T07:07:04;22.80;99.90
45685;DHT22;46836;48.388;16.210;2023-07-13T07:09:31;22.90;99.90
45685;DHT22;46836;48.388;16.210;2023-07-13T07:11:58;23.10;99.90
45685;DHT22;46836;48.388;16.210;2023-07-13T07:14:30;23.10;99.90
45685;DHT22;46836;48.388;16.210;2023-07-13T07:16:57;23.20;99.90
45685;DHT22;46836;48.388;16.210;2023-07-13T07:19:27;23.30;99.90
45685;DHT22;46836;48.388;16.210;2023-07-13T07:21:54;23.20;99.90
45685;DHT22;46836;48.388;16.210;2023-07-13T07:24:21;23.30;99.90
45685;DHT22;46836;48.388;16.210;2023-07-13T07:26:49;23.30;99.90
45685;DHT22;46836;48.388;16.210;2023-07-13T07:29:18;23.30;99.90
45685;DHT22;46836;48.388;16.210;2023-07-13T07:31:48;23.30;99.90
45685;DHT22;46836;48.388;16.210;2023-07-13T07:34:31;23.30;99.90
45685;DHT22;46836;48.388;16.210;2023-07-13T07:37:01;23.30;99.90
45685;DHT22;46836;48.388;16.210;2023-07-13T07:39:31;23.20;99.90
45685;DHT22;46836;48.388;16.210;2023-07-13T07:41:58;23.20;99.90
45685;DHT22;46836;48.388;16.210;2023-07-13T07:44:25;23.20;99.90
45685;DHT22;46836;48.388;16.210;2023-07-13T07:46:54;23.20;99.90
45685;DHT22;46836;48.388;16.210;2023-07-13T07:49:21;23.30;99.90
45685;DHT22;46836;48.388;16.210;2023-07-13T07:51:48;23.30;99.90
45685;DHT22;46836;48.388;16.210;2023-07-13T07:54:16;23.30;99.90
45685;DHT22;46836;48.388;16.210;2023-07-13T07:56:55;23.30;99.90
45685;DHT22;46836;48.388;16.210;2023-07-13T07:59:25;23.30;99.90
45685;DHT22;46836;48.388;16.210;2023-07-13T08:01:55;23.30;99.90
45685;DHT22;46836;48.388;16.210;2023-07-13T08:04:25;23.30;99.90
45685;DHT22;46836;48.388;16.210;2023-07-13T08:06:55;23.40;99.90
45685;DHT22;46836;48.388;16.210;2023-07-13T08:09:23;23.40;99.90
45685;DHT22;46836;48.388;16.210;2023-07-13T08:11:50;23.50;99.90
45685;DHT22;46836;48.388;16.210;2023-07-13T08:14:21;23.50;99.90
45685;DHT22;46836;48.388;16.210;2023-07-13T08:16:48;23.60;99.90
45685;DHT22;46836;48.388;16.210;2023-07-13T08:19:16;23.70;99.90
45685;DHT22;46836;48.388;16.210;2023-07-13T08:21:43;23.80;99.90
45685;DHT22;46836;48.388;16.210;2023-07-13T08:24:10;23.90;99.90
45685;DHT22;46836;48.388;16.210;2023-07-13T08:26:37;24.00;99.90
45685;DHT22;46836;48.388;16.210;2023-07-13T08:29:04;24.10;99.90
45685;DHT22;46836;48.388;16.210;2023-07-13T08:31:31;24.30;99.90
45685;DHT22;46836;48.388;16.210;2023-07-13T08:33:58;24.40;99.90
45685;DHT22;46836;48.388;16.210;2023-07-13T08:36:25;24.60;99.90
45685;DHT22;46836;48.388;16.210;2023-07-13T08:38:53;24.60;99.90
45685;DHT22;46836;48.388;16.210;2023-07-13T08:41:20;24.70;99.90
45685;DHT22;46836;48.388;16.210;2023-07-13T08:43:55;24.80;99.90
45685;DHT22;46836;48.388;16.210;2023-07-13T08:46:38;24.70;99.90
45685;DHT22;46836;48.388;16.210;2023-07-13T08:49:16;24.80;99.90
45685;DHT22;46836;48.388;16.210;2023-07-13T08:51:58;24.80;99.90
45685;DHT22;46836;48.388;16.210;2023-07-13T08:54:40;24.90;99.90
45685;DHT22;46836;48.388;16.210;2023-07-13T08:57:17;25.10;99.90
45685;DHT22;46836;48.388;16.210;2023-07-13T08:59:46;25.30;99.90
45685;DHT22;46836;48.388;16.210;2023-07-13T09:02:26;25.50;99.90
45685;DHT22;46836;48.388;16.210;2023-07-13T09:05:14;25.60;99.90
45685;DHT22;46836;48.388;16.210;2023-07-13T09:16:21;26.00;99.90
45685;DHT22;46836;48.388;16.210;2023-07-13T09:18:51;26.10;99.90
45685;DHT22;46836;48.388;16.210;2023-07-13T09:21:27;26.20;99.90
45685;DHT22;46836;48.388;16.210;2023-07-13T09:24:06;26.30;99.90
45685;DHT22;46836;48.388;16.210;2023-07-13T09:26:40;26.40;99.90
45685;DHT22;46836;48.388;16.210;2023-07-13T09:29:20;26.40;99.90
45685;DHT22;46836;48.388;16.210;2023-07-13T09:31:52;26.60;99.90
45685;DHT22;46836;48.388;16.210;2023-07-13T09:34:20;26.70;99.90
45685;DHT22;46836;48.388;16.210;2023-07-13T09:36:47;26.90;99.90
45685;DHT22;46836;48.388;16.210;2023-07-13T09:39:29;26.90;99.90
45685;DHT22;46836;48.388;16.210;2023-07-13T09:42:20;26.90;99.90
45685;DHT22;46836;48.388;16.210;2023-07-13T09:44:55;26.90;99.90
45685;DHT22;46836;48.388;16.210;2023-07-13T09:47:30;26.90;99.90
45685;DHT22;46836;48.388;16.210;2023-07-13T09:50:00;27.00;99.90
45685;DHT22;46836;48.388;16.210;2023-07-13T09:52:45;27.20;99.90
45685;DHT22;46836;48.388;16.210;2023-07-13T09:58:12;27.40;99.90
45685;DHT22;46836;48.388;16.210;2023-07-13T10:00:41;27.50;99.90
45685;DHT22;46836;48.388;16.210;2023-07-13T10:03:18;27.60;99.90
45685;DHT22;46836;48.388;16.210;2023-07-13T10:05:49;27.80;99.90
45685;DHT22;46836;48.388;16.210;2023-07-13T10:08:28;27.90;99.90
45685;DHT22;46836;48.388;16.210;2023-07-13T10:11:02;28.00;99.90
45685;DHT22;46836;48.388;16.210;2023-07-13T10:13:39;28.10;99.90
45685;DHT22;46836;48.388;16.210;2023-07-13T10:16:07;28.20;99.90
45685;DHT22;46836;48.388;16.210;2023-07-13T10:18:56;28.20;99.90
45685;DHT22;46836;48.388;16.210;2023-07-13T10:21:34;28.40;99.90
45685;DHT22;46836;48.388;16.210;2023-07-13T10:24:18;28.50;99.90
45685;DHT22;46836;48.388;16.210;2023-07-13T10:27:16;28.50;99.90
45685;DHT22;46836;48.388;16.210;2023-07-13T10:29:57;28.60;99.90
45685;DHT22;46836;48.388;16.210;2023-07-13T10:32:26;28.60;99.90
45685;DHT22;46836;48.388;16.210;2023-07-13T10:34:53;28.70;99.90
45685;DHT22;46836;48.388;16.210;2023-07-13T10:37:26;29.00;99.90
45685;DHT22;46836;48.388;16.210;2023-07-13T10:39:55;29.20;99.90
45685;DHT22;46836;48.388;16.210;2023-07-13T10:42:36;29.20;99.90
45685;DHT22;46836;48.388;16.210;2023-07-13T10:45:34;29.30;99.90
45685;DHT22;46836;48.388;16.210;2023-07-13T10:48:02;29.20;99.90
45685;DHT22;46836;48.388;16.210;2023-07-13T10:50:30;29.20;99.90
45685;DHT22;46836;48.388;16.210;2023-07-13T10:53:21;29.30;99.90
45685;DHT22;46836;48.388;16.210;2023-07-13T10:55:58;29.20;99.90
45685;DHT22;46836;48.388;16.210;2023-07-13T10:58:38;29.00;99.90
45685;DHT22;46836;48.388;16.210;2023-07-13T11:03:38;28.60;99.90
45685;DHT22;46836;48.388;16.210;2023-07-13T11:06:28;28.70;99.90
45685;DHT22;46836;48.388;16.210;2023-07-13T11:08:59;28.80;99.90
45685;DHT22;46836;48.388;16.210;2023-07-13T11:14:02;28.70;99.90
45685;DHT22;46836;48.388;16.210;2023-07-13T11:16:42;28.90;99.90
45685;DHT22;46836;48.388;16.210;2023-07-13T11:27:45;29.50;99.90
45685;DHT22;46836;48.388;16.210;2023-07-13T11:30:31;29.70;99.90
45685;DHT22;46836;48.388;16.210;2023-07-13T11:38:20;30.00;99.90
45685;DHT22;46836;48.388;16.210;2023-07-13T11:40:50;30.10;99.90
45685;DHT22;46836;48.388;16.210;2023-07-13T11:43:22;30.10;99.90
45685;DHT22;46836;48.388;16.210;2023-07-13T11:45:52;30.10;99.90
45685;DHT22;46836;48.388;16.210;2023-07-13T11:48:26;30.20;99.90
45685;DHT22;46836;48.388;16.210;2023-07-13T11:51:03;30.20;99.90
45685;DHT22;46836;48.388;16.210;2023-07-13T11:53:39;30.10;99.90
45685;DHT22;46836;48.388;16.210;2023-07-13T11:56:07;30.00;99.90
45685;DHT22;46836;48.388;16.210;2023-07-13T11:58:35;30.00;99.90
45685;DHT22;46836;48.388;16.210;2023-07-13T12:01:03;29.90;99.90
45685;DHT22;46836;48.388;16.210;2023-07-13T12:03:34;30.30;99.90
45685;DHT22;46836;48.388;16.210;2023-07-13T12:06:04;30.50;99.90
45685;DHT22;46836;48.388;16.210;2023-07-13T12:08:39;30.60;99.90
45685;DHT22;46836;48.388;16.210;2023-07-13T12:11:15;30.50;99.90
45685;DHT22;46836;48.388;16.210;2023-07-13T12:13:45;30.50;99.90
45685;DHT22;46836;48.388;16.210;2023-07-13T12:16:29;30.40;99.90
45685;DHT22;46836;48.388;16.210;2023-07-13T12:19:01;30.50;99.90
45685;DHT22;46836;48.388;16.210;2023-07-13T12:21:39;30.20;99.90
45685;DHT22;46836;48.388;16.210;2023-07-13T12:24:15;30.20;99.90
45685;DHT22;46836;48.388;16.210;2023-07-13T12:26:43;30.10;99.90
45685;DHT22;46836;48.388;16.210;2023-07-13T12:29:17;30.00;99.90
45685;DHT22;46836;48.388;16.210;2023-07-13T12:31:47;29.90;99.90
45685;DHT22;46836;48.388;16.210;2023-07-13T12:34:20;29.90;99.90
45685;DHT22;46836;48.388;16.210;2023-07-13T12:36:52;30.00;99.90
45685;DHT22;46836;48.388;16.210;2023-07-13T12:41:53;30.10;99.90
45685;DHT22;46836;48.388;16.210;2023-07-13T12:44:27;30.10;99.90
45685;DHT22;46836;48.388;16.210;2023-07-13T12:47:03;30.10;99.90
45685;DHT22;46836;48.388;16.210;2023-07-13T12:49:33;30.00;99.90
45685;DHT22;46836;48.388;16.210;2023-07-13T12:52:10;30.20;99.90
45685;DHT22;46836;48.388;16.210;2023-07-13T12:54:39;30.20;99.90
45685;DHT22;46836;48.388;16.210;2023-07-13T12:57:18;29.90;99.90
45685;DHT22;46836;48.388;16.210;2023-07-13T12:59:45;30.00;99.90
45685;DHT22;46836;48.388;16.210;2023-07-13T13:02:33;29.90;99.90
45685;DHT22;46836;48.388;16.210;2023-07-13T13:05:02;30.00;99.90
45685;DHT22;46836;48.388;16.210;2023-07-13T13:07:31;30.10;99.90
45685;DHT22;46836;48.388;16.210;2023-07-13T13:09:58;30.30;99.90
45685;DHT22;46836;48.388;16.210;2023-07-13T13:12:25;30.40;99.90
45685;DHT22;46836;48.388;16.210;2023-07-13T13:14:53;30.30;99.90
45685;DHT22;46836;48.388;16.210;2023-07-13T13:17:23;30.20;99.90
45685;DHT22;46836;48.388;16.210;2023-07-13T13:19:52;30.10;99.90
45685;DHT22;46836;48.388;16.210;2023-07-13T13:22:21;30.10;99.90
45685;DHT22;46836;48.388;16.210;2023-07-13T13:24:48;30.00;99.90
45685;DHT22;46836;48.388;16.210;2023-07-13T13:27:21;29.90;99.90
45685;DHT22;46836;48.388;16.210;2023-07-13T13:29:51;29.90;99.90
45685;DHT22;46836;48.388;16.210;2023-07-13T13:32:19;29.90;99.90
45685;DHT22;46836;48.388;16.210;2023-07-13T13:34:47;29.90;99.90
45685;DHT22;46836;48.388;16.210;2023-07-13T13:37:22;29.80;99.90
45685;DHT22;46836;48.388;16.210;2023-07-13T13:39:50;29.80;99.90
45685;DHT22;46836;48.388;16.210;2023-07-13T13:42:34;29.60;99.90
45685;DHT22;46836;48.388;16.210;2023-07-13T13:45:01;29.50;99.90
45685;DHT22;46836;48.388;16.210;2023-07-13T13:47:31;29.40;99.90
45685;DHT22;46836;48.388;16.210;2023-07-13T13:50:00;29.50;99.90
45685;DHT22;46836;48.388;16.210;2023-07-13T13:52:27;29.50;99.90
45685;DHT22;46836;48.388;16.210;2023-07-13T13:54:55;29.70;99.90
45685;DHT22;46836;48.388;16.210;2023-07-13T13:57:23;29.90;99.90
45685;DHT22;46836;48.388;16.210;2023-07-13T13:59:52;29.90;99.90
45685;DHT22;46836;48.388;16.210;2023-07-13T14:02:26;30.00;99.90
45685;DHT22;46836;48.388;16.210;2023-07-13T14:04:59;30.10;99.90
45685;DHT22;46836;48.388;16.210;2023-07-13T14:07:28;30.10;99.90
45685;DHT22;46836;48.388;16.210;2023-07-13T14:09:58;30.10;99.90
45685;DHT22;46836;48.388;16.210;2023-07-13T14:12:28;29.90;99.90
45685;DHT22;46836;48.388;16.210;2023-07-13T14:14:57;29.60;99.90
45685;DHT22;46836;48.388;16.210;2023-07-13T14:17:27;29.40;99.90
45685;DHT22;46836;48.388;16.210;2023-07-13T14:19:55;29.20;99.90
45685;DHT22;46836;48.388;16.210;2023-07-13T14:22:28;29.20;99.90
45685;DHT22;46836;48.388;16.210;2023-07-13T14:24:56;29.30;99.90
45685;DHT22;46836;48.388;16.210;2023-07-13T14:27:25;29.40;99.90
45685;DHT22;46836;48.388;16.210;2023-07-13T14:29:52;29.50;99.90
45685;DHT22;46836;48.388;16.210;2023-07-13T14:32:20;29.50;99.90
45685;DHT22;46836;48.388;16.210;2023-07-13T14:34:47;29.60;99.90
45685;DHT22;46836;48.388;16.210;2023-07-13T14:37:15;29.60;99.90
45685;DHT22;46836;48.388;16.210;2023-07-13T14:39:44;29.70;99.90
45685;DHT22;46836;48.388;16.210;2023-07-13T14:42:13;29.70;99.90
45685;DHT22;46836;48.388;16.210;2023-07-13T14:44:40;29.70;99.90
45685;DHT22;46836;48.388;16.210;2023-07-13T14:47:08;29.70;99.90
45685;DHT22;46836;48.388;16.210;2023-07-13T14:49:42;29.80;99.90
45685;DHT22;46836;48.388;16.210;2023-07-13T14:52:17;30.10;99.90
45685;DHT22;46836;48.388;16.210;2023-07-13T14:54:46;30.30;99.90
45685;DHT22;46836;48.388;16.210;2023-07-13T14:57:15;30.40;99.90
45685;DHT22;46836;48.388;16.210;2023-07-13T14:59:43;30.40;99.90
45685;DHT22;46836;48.388;16.210;2023-07-13T15:02:25;30.40;99.90
45685;DHT22;46836;48.388;16.210;2023-07-13T15:04:54;30.40;99.90
45685;DHT22;46836;48.388;16.210;2023-07-13T15:07:21;30.50;99.90
45685;DHT22;46836;48.388;16.210;2023-07-13T15:09:50;30.40;99.90
45685;DHT22;46836;48.388;16.210;2023-07-13T15:12:18;30.20;99.90
45685;DHT22;46836;48.388;16.210;2023-07-13T15:14:47;30.10;99.90
45685;DHT22;46836;48.388;16.210;2023-07-13T15:17:31;29.90;99.90
45685;DHT22;46836;48.388;16.210;2023-07-13T15:20:00;29.80;99.90
45685;DHT22;46836;48.388;16.210;2023-07-13T15:22:28;29.70;99.90
45685;DHT22;46836;48.388;16.210;2023-07-13T15:24:55;29.50;99.90
45685;DHT22;46836;48.388;16.210;2023-07-13T15:27:27;29.30;99.90
45685;DHT22;46836;48.388;16.210;2023-07-13T15:29:54;29.10;99.90
45685;DHT22;46836;48.388;16.210;2023-07-13T15:32:21;28.80;99.90
45685;DHT22;46836;48.388;16.210;2023-07-13T15:34:48;28.60;99.90
45685;DHT22;46836;48.388;16.210;2023-07-13T15:37:16;28.30;99.90
45685;DHT22;46836;48.388;16.210;2023-07-13T15:39:44;28.10;99.90
45685;DHT22;46836;48.388;16.210;2023-07-13T15:42:16;28.00;99.90
45685;DHT22;46836;48.388;16.210;2023-07-13T15:44:44;27.90;99.90
45685;DHT22;46836;48.388;16.210;2023-07-13T15:47:14;27.70;99.90
45685;DHT22;46836;48.388;16.210;2023-07-13T15:49:42;27.50;99.90
45685;DHT22;46836;48.388;16.210;2023-07-13T15:52:21;27.40;99.90
45685;DHT22;46836;48.388;16.210;2023-07-13T15:54:49;27.40;99.90
45685;DHT22;46836;48.388;16.210;2023-07-13T15:57:17;27.30;99.90
45685;DHT22;46836;48.388;16.210;2023-07-13T15:59:44;27.30;99.90
45685;DHT22;46836;48.388;16.210;2023-07-13T16:02:20;27.20;99.90
45685;DHT22;46836;48.388;16.210;2023-07-13T16:04:48;27.20;99.90
45685;DHT22;46836;48.388;16.210;2023-07-13T16:07:16;27.10;99.90
45685;DHT22;46836;48.388;16.210;2023-07-13T16:09:44;27.10;99.90